Pagrindinis puslapis
METAR-TAF:

METAR-TAF

Oro uostai :

Darvinas, Australija

platuma: 12-24S, ilguma: 130-52E, Aukštis: 31 m

Dabartinis oras

Ataskaita buvo paskelbta 15 minutes, ne 05:00 UTC
Vėjas 9 kt iš Rytų
Temperatūra 32°C
Drėgmė 21%
Slėgis 1013 hPa
Matomumas: 9000 m

METAR: YPDN 290500Z 09009KT 9000 NSC 32/07 Q1013

Laikas: 14:45 (05:15 UTC)

Prognozė

Ataskaita buvo paskelbta 5 valandos ir 53 minutes, ne 23:22 UTC
Prognozė galioja nuo 29 metu 00 UTC su 30 metu 06 UTC
Vėjas 7 kt iš Rytų
Matomumas 10 km arba daugiau
nėra debesų žemiau 1500 m ir nėra kamuolinių lietaus debesų
Nuo 29 metu 0600 UTC
Vėjas 7 kt iš Šiaurės/Šiaurės Rytų
Matomumas 10 km arba daugiau
nėra debesų žemiau 1500 m ir nėra kamuolinių lietaus debesų
Nuo 29 metu 1500 UTC
Vėjas 6 kt iš Rytų/Pietryčių
Matomumas 10 km arba daugiau
Mažai debesys ne aukštis 2000 ft

TAF: YPDN 282322Z 2900/3006 10007KT CAVOK FM290600 03007KT CAVOK FM291500 12006KT 9999 FEW020

Orai ataskaitas ir orų prognozės (METAR, TAF).

turimą stotys yra geltonos ir raudonos taškus žemėlapyje.

Perkelti pele per norėdami pamatyti stoties vardą.

Tada spustelėkite, norėdami matyti oro stebėjimo ir prognozės.

Norėdami pakeisti žemėlapį: spustelėkite ant žalios mygtukų su juodo kryžiaus žemyn,; žalią mygtuką su brūkšneliu, jei norite nutolinti; arba žalių rodyklių gretimoms žemėlapius.


METAR-TAF: